Latest Weather Observations for Oakey

IDQ60901

Issued at 9:01 pm EST Tuesday 7 July 2015 (issued every 10 minutes, with the page automatically refreshed every 10 minutes)

About weather observations | Map of Brisbane area stations | Latest observations for Brisbane area | Other Formats
Station Details ID: 041359 Name: OAKEY AERO Lat: -27.40 Lon: 151.74 Height: 405.69 m
Data from the previous 72 hours. | See also: Recent months at Oakey
Date/Time
EST
Tmp

°C
App
Tmp
°C
Dew
Point
°C
Rel
Hum
%
Delta-T

°C
Wind Press
QNH
hPa
Press
MSL
hPa
Rain
since
9 am
mm
Dir
 
Spd
km/h
Gust
km/h
Spd
kts
Gust
kts
07/08:30pm 6.4 1.8 -1.2 58 2.9 W 13 13 7 7 1021.5 1021.6 0.0
07/08:00pm 8.1 5.9 -1.7 50 3.8 CALM 0 0 0 0 1021.4 1021.5 0.0
07/07:30pm 7.6 3.9 -3.0 47 4.0 ESE 7 11 4 6 1021.1 1021.2 0.0
07/07:00pm 9.9 6.4 -1.5 45 4.5 S 7 9 4 5 1020.8 1020.9 0.0
07/06:30pm 11.0 6.7 -1.4 42 5.0 SW 11 15 6 8 1020.3 1020.5 0.0
07/06:00pm 12.5 7.1 -1.1 39 5.6 SW 17 19 9 10 1020.0 1020.2 0.0
07/05:30pm 13.7 8.2 -1.9 34 6.4 SW 17 22 9 12 1019.6 1019.7 0.0
07/05:00pm 15.3 9.4 -2.6 29 7.3 SW 19 22 10 12 1019.3 1019.4 0.0
07/04:30pm 17.1 10.9 -3.1 25 8.3 SW 20 28 11 15 1018.8 1018.9 0.0
07/04:00pm 18.1 11.1 -3.9 22 9.0 SW 24 32 13 17 1018.4 1018.5 0.0
07/03:30pm 18.5 11.0 -4.9 20 9.4 WSW 26 35 14 19 1018.2 1018.3 0.0
07/03:00pm 19.1 11.9 -5.0 19 9.7 SW 24 33 13 18 1018.0 1018.2 0.0
07/02:30pm 19.1 11.9 -5.0 19 9.8 SW 24 33 13 18 1017.9 1018.1 0.0
07/02:00pm 19.2 12.4 -5.0 19 9.8 SW 22 32 12 17 1017.8 1017.9 0.0
07/01:30pm 19.0 13.1 -2.6 23 9.2 WSW 19 28 10 15 1018.0 1018.2 0.0
07/01:00pm 18.4 12.8 -3.1 23 9.0 WSW 17 24 9 13 1018.0 1018.2 0.0
07/12:30pm 17.1 11.9 -2.5 26 8.2 SW 15 24 8 13 1018.5 1018.6 0.0
07/12:00pm 16.4 12.0 0.1 33 7.1 W 13 19 7 10 1019.0 1019.1 0.0
07/11:30am 15.6 11.9 2.4 41 6.0 W 11 20 6 11 1019.5 1019.6 0.0
07/11:00am 14.6 11.4 2.8 45 5.4 SW 9 13 5 7 1019.9 1020.0 0.0
07/10:30am 13.5 10.1 4.1 53 4.4 WSW 11 19 6 10 1020.1 1020.3 0.0
07/10:00am 11.9 8.4 3.7 57 3.7 WSW 11 17 6 9 1020.5 1020.7 0.0
07/09:30am 10.8 7.5 4.7 66 2.8 W 11 13 6 7 1020.8 1020.9 0.0
07/09:00am 9.5 6.7 5.1 74 2.0 W 9 13 5 7 1020.8 1020.9 0.0
07/08:30am 7.0 5.2 5.3 89 0.8 SSW 4 7 2 4 1020.5 1020.7 0.0
07/08:00am 5.1 2.7 4.1 93 0.4 ESE 6 7 3 4 1020.2 1020.4 0.0
07/07:30am 1.8 -1.4 0.9 94 0.3 SE 7 9 4 5 1020.1 1020.3 0.0
07/07:00am -0.7 -3.7 -2.0 91 0.4 NNE 4 6 2 3 1019.8 1019.9 0.0
07/06:30am 0.5 -2.9 -0.6 92 0.4 NE 7 9 4 5 1019.4 1019.5 0.0
07/06:00am 0.5 -2.9 -0.6 92 0.4 ESE 7 7 4 4 1019.1 1019.2 0.0
07/05:30am 0.5 -3.0 -1.3 88 0.7 NE 7 7 4 4 1018.7 1018.8 0.0
07/05:00am 1.3 -2.1 -0.5 88 0.7 NE 7 9 4 5 1018.5 1018.6 0.0
07/04:30am 2.0 -1.3 0.1 87 0.7 NE 7 7 4 4 1018.3 1018.4 0.0
07/04:00am 2.2 -0.9 0.4 88 0.7 NE 6 7 3 4 1018.2 1018.3 0.0
07/03:30am 2.8 -0.2 0.7 86 0.8 NE 6 6 3 3 1018.2 1018.3 0.0
07/03:00am 3.5 0.4 1.5 87 0.8 NE 7 7 4 4 1018.4 1018.5 0.0
07/02:30am 3.7 0.9 2.1 89 0.7 SSE 6 9 3 5 1018.5 1018.6 0.0
07/02:00am 3.9 0.8 1.6 85 0.9 NE 7 7 4 4 1018.4 1018.5 0.0
07/01:30am 4.6 1.9 2.6 87 0.8 NE 6 7 3 4 1018.4 1018.5 0.0
07/01:00am 4.5 1.7 2.2 85 0.9 ENE 6 9 3 5 1018.3 1018.4 0.0
07/12:30am 5.0 2.1 2.4 83 1.1 NE 7 9 4 5 1018.3 1018.4 0.0
 
Date/Time
EST
Tmp

°C
App
Tmp
°C
Dew
Point
°C
Rel
Hum
%
Delta-T

°C
Wind Press
QNH
hPa
Press
MSL
hPa
Rain
since
9 am
mm
Dir
 
Spd
km/h
Gust
km/h
Spd
kts
Gust
kts
06/11:30pm 4.6 1.2 1.8 82 1.1 NE 9 9 5 5 1018.4 1018.5 0.0
06/11:00pm 5.1 1.8 2.5 83 1.1 NE 9 13 5 7 1018.3 1018.4 0.0
06/10:30pm 5.6 2.9 2.6 81 1.3 ENE 6 7 3 4 1018.4 1018.5 0.0
06/10:00pm 5.3 2.4 1.4 76 1.6 NE 6 7 3 4 1018.3 1018.4 0.0
06/09:30pm 6.0 2.6 1.9 75 1.7 NNE 9 11 5 6 1018.0 1018.2 0.0
06/09:00pm 6.9 3.9 2.0 71 2.0 NE 7 9 4 5 1017.8 1017.9 0.0
06/08:30pm 7.3 4.3 2.0 69 2.2 NE 7 9 4 5 1017.7 1017.8 0.0
06/08:00pm 8.7 5.8 2.5 65 2.7 NE 7 9 4 5 1017.7 1017.8 0.0
06/07:30pm 9.3 6.5 3.3 66 2.7 NNE 7 7 4 4 1017.5 1017.6 0.0
06/07:00pm 10.3 7.5 3.1 61 3.2 N 7 7 4 4 1017.3 1017.4 0.0
06/06:30pm 11.6 8.9 3.6 58 3.6 NW 7 9 4 5 1017.1 1017.2 0.0
06/06:00pm 14.2 11.3 4.8 53 4.5 WNW 9 13 5 7 1016.9 1017.0 0.0
06/05:30pm 16.3 13.1 5.3 48 5.4 WNW 11 13 6 7 1016.6 1016.7 0.0
06/05:00pm 17.8 13.5 5.1 43 6.2 WNW 17 20 9 11 1016.5 1016.6 0.0
06/04:30pm 19.9 15.6 5.2 38 7.3 WNW 17 24 9 13 1016.4 1016.5 0.0
06/04:00pm 20.5 15.3 5.3 37 7.6 WNW 22 30 12 16 1016.5 1016.6 0.0
06/03:30pm 20.7 16.2 5.9 38 7.5 WNW 19 24 10 13 1016.5 1016.6 0.0
06/03:00pm 19.8 14.2 5.5 39 7.2 WNW 24 32 13 17 1016.7 1016.8 0.0
06/02:30pm 20.2 14.4 6.2 40 7.1 WNW 26 33 14 18 1017.0 1017.1 0.0
06/02:00pm 20.0 14.4 5.3 38 7.4 WNW 24 35 13 19 1017.1 1017.2 0.0
06/01:30pm 21.1 15.4 6.6 39 7.5 WNW 26 39 14 21 1017.4 1017.5 0.0
06/01:00pm 20.4 14.8 5.6 38 7.5 WNW 24 41 13 22 1017.6 1017.7 0.0
06/12:30pm 20.4 14.3 6.7 41 7.1 NW 28 35 15 19 1018.3 1018.4 0.0
06/12:00pm 20.0 14.3 6.7 42 6.8 NW 26 35 14 19 1018.7 1018.8 0.0
06/11:30am 19.5 14.5 6.6 43 6.6 NW 22 32 12 17 1019.2 1019.3 0.0
06/11:00am 18.7 14.3 7.2 47 5.9 WNW 20 28 11 15 1019.6 1019.7 0.0
06/10:30am 17.5 14.0 7.0 50 5.3 W 15 20 8 11 1020.1 1020.3 0.0
06/10:00am 16.0 13.5 6.7 54 4.6 WNW 9 13 5 7 1020.3 1020.5 0.0
06/09:30am 14.8 13.1 5.9 55 4.4 NW 4 9 2 5 1020.6 1020.8 0.0
06/09:00am 13.2 11.4 7.0 66 3.1 NE 6 7 3 4 1020.8 1020.9 0.0
06/08:30am 9.3 7.2 5.7 78 1.7 E 6 7 3 4 1020.6 1020.8 0.0
06/08:00am 6.5 4.5 4.3 86 1.0 ESE 4 6 2 3 1020.6 1020.8 0.0
06/07:30am 3.8 1.1 2.6 92 0.5 SSE 6 7 3 4 1020.5 1020.7 0.0
06/07:00am 2.0 -1.0 0.8 92 0.5 SE 6 7 3 4 1020.2 1020.4 0.0
06/06:30am 2.2 -0.8 1.0 92 0.5 SE 6 7 3 4 1020.0 1020.2 0.0
06/06:00am 2.1 -0.9 0.9 92 0.5 NE 6 7 3 4 1020.0 1020.2 0.0
06/05:30am 1.6 -1.7 0.3 91 0.5 NE 7 9 4 5 1019.8 1019.9 0.0
06/05:00am 2.2 -1.0 0.9 91 0.5 NE 7 9 4 5 1019.8 1019.9 0.0
06/04:30am 2.2 -1.4 0.7 90 0.6 SE 9 11 5 6 1020.0 1020.2 0.0
06/04:00am 2.5 -0.7 1.0 90 0.6 ESE 7 9 4 5 1020.1 1020.3 0.0
06/03:30am 3.0 0.1 1.2 88 0.7 E 6 7 3 4 1020.1 1020.3 0.0
06/03:00am 3.3 0.4 1.5 88 0.7 SE 6 7 3 4 1020.1 1020.3 0.0
06/02:30am 3.6 0.2 2.0 89 0.6 SE 9 11 5 6 1020.2 1020.4 0.0
06/02:00am 4.4 1.2 2.8 89 0.7 SSE 9 11 5 6 1020.5 1020.7 0.0
06/01:30am 4.2 0.9 2.6 89 0.7 SSE 9 11 5 6 1020.8 1020.9 0.0
06/01:00am 4.3 1.0 2.2 86 0.9 E 9 11 5 6 1021.0 1021.1 0.0
06/12:30am 4.8 2.0 2.2 83 1.1 E 6 9 3 5 1021.2 1021.3 0.0
06/12:00am 5.2 1.9 2.6 83 1.1 E 9 11 5 6 1021.1 1021.2 0.0
 
Date/Time
EST
Tmp

°C
App
Tmp
°C
Dew
Point
°C
Rel
Hum
%
Delta-T

°C
Wind Press
QNH
hPa
Press
MSL
hPa
Rain
since
9 am
mm
Dir
 
Spd
km/h
Gust
km/h
Spd
kts
Gust
kts
05/11:30pm 5.8 2.6 3.1 83 1.1 SSE 9 11 5 6 1021.2 1021.3 0.0
05/11:00pm 6.4 2.8 3.2 80 1.4 ESE 11 13 6 7 1021.4 1021.5 0.0
05/10:30pm 7.0 3.5 3.4 78 1.6 SSE 11 11 6 6 1021.6 1021.7 0.0
05/10:00pm 9.3 6.5 5.1 75 1.9 ESE 9 13 5 7 1021.3 1021.4 0.0
05/09:30pm 8.7 5.8 4.5 75 1.9 SSE 9 11 5 6 1021.2 1021.3 0.0
05/09:00pm 10.0 6.7 4.4 68 2.5 NE 11 13 6 7 1021.3 1021.4 0.0
05/08:30pm 11.7 9.0 5.6 66 2.9 NE 9 11 5 6 1021.4 1021.5 0.0
05/08:00pm 11.0 8.7 4.9 66 2.8 NE 6 7 3 4 1021.1 1021.2 0.0
05/07:30pm 11.8 10.3 5.0 63 3.2 N 2 6 1 3 1020.9 1021.0 0.0
05/07:00pm 13.1 11.7 5.3 59 3.7 NE 2 9 1 5 1020.6 1020.8 0.0
05/06:30pm 13.9 12.8 5.3 56 4.1 CALM 0 6 0 3 1020.4 1020.6 0.0
05/06:00pm 15.4 13.2 5.3 51 4.9 W 6 7 3 4 1020.4 1020.6 0.0
05/05:30pm 16.1 13.4 5.4 49 5.2 WNW 9 13 5 7 1020.4 1020.6 0.0
05/05:00pm 17.1 14.4 5.7 47 5.6 W 9 11 5 6 1020.3 1020.5 0.0
05/04:30pm 17.8 14.2 5.1 43 6.2 WNW 13 19 7 10 1020.1 1020.3 0.0
05/04:00pm 18.5 13.5 4.7 40 6.7 W 20 26 11 14 1020.1 1020.3 0.0
05/03:30pm 18.3 14.7 5.2 42 6.5 W 13 17 7 9 1020.1 1020.3 0.0
05/03:00pm 19.9 16.3 5.2 38 7.3 WSW 13 20 7 11 1020.1 1020.3 0.0
05/02:30pm 19.3 15.2 4.6 38 7.2 W 15 20 8 11 1020.3 1020.5 0.0
05/02:00pm 18.8 14.7 4.6 39 6.9 WNW 15 24 8 13 1020.5 1020.7 0.0
05/01:30pm 19.8 16.0 5.8 40 7.1 WNW 15 28 8 15 1020.6 1020.8 0.0
05/01:00pm 19.1 15.0 4.5 38 7.1 WNW 15 26 8 14 1021.0 1021.1 0.0
05/12:30pm 19.7 15.6 6.1 41 6.9 WNW 17 28 9 15 1021.5 1021.6 0.0
05/12:00pm 18.5 14.1 5.0 41 6.6 WNW 17 24 9 13 1022.0 1022.1 0.0
05/11:30am 19.4 14.7 6.2 42 6.7 NW 20 28 11 15 1022.6 1022.8 0.0
05/11:00am 18.6 14.0 6.4 45 6.2 NW 20 24 11 13 1023.1 1023.3 0.0
05/10:30am 18.1 15.1 6.0 45 6.1 NW 11 17 6 9 1023.6 1023.7 0.0
05/10:00am 17.6 15.6 8.5 55 4.8 NNW 9 13 5 7 1023.7 1023.8 0.0
05/09:30am 15.7 15.6 9.6 67 3.2 CALM 0 0 0 0 1023.7 1023.8 0.0
05/09:00am 14.0 13.1 10.6 80 1.8 ENE 6 9 3 5 1023.6 1023.7 0.0
05/08:30am 12.0 11.2 9.7 86 1.2 ESE 4 6 2 3 1023.5 1023.6 0.0
05/08:00am 10.7 9.3 8.8 88 1.0 NE 6 7 3 4 1023.1 1023.3 0.0
05/07:30am 9.9 8.4 8.5 91 0.7 SE 6 7 3 4 1023.0 1023.2 0.0
05/07:00am 9.2 7.0 8.0 92 0.6 SE 9 11 5 6 1022.6 1022.8 0.0
05/06:30am 8.8 6.9 7.7 93 0.5 SE 7 9 4 5 1022.4 1022.6 0.0
05/06:00am 8.5 6.6 7.6 94 0.4 ESE 7 9 4 5 1022.1 1022.3 0.0
05/05:30am 7.6 5.6 6.2 91 0.7 SSE 6 7 3 4 1021.7 1021.8 0.0
05/05:00am 7.6 5.3 5.9 89 0.8 SSE 7 9 4 5 1021.5 1021.6 0.0
05/04:30am 8.5 6.6 6.8 89 0.8 SSE 6 7 3 4 1021.3 1021.4 0.0
05/04:00am 9.2 7.2 7.3 88 0.9 SE 7 9 4 5 1021.4 1021.5 0.0
05/03:30am 9.4 7.2 7.7 89 0.8 SE 9 9 5 5 1021.6 1021.7 0.0
05/03:00am 9.6 7.4 7.7 88 0.9 SSE 9 11 5 6 1021.7 1021.8 0.0
05/02:30am 9.7 7.2 8.1 90 0.8 SSE 11 13 6 7 1021.8 1021.9 0.0
05/02:00am 9.3 7.4 7.7 90 0.8 S 7 9 4 5 1022.1 1022.3 0.0
05/01:30am 9.0 7.3 7.5 90 0.7 SSW 6 9 3 5 1022.2 1022.4 0.0
05/01:00am 8.8 6.5 7.3 90 0.7 E 9 11 5 6 1022.2 1022.4 0.0
05/12:30am 8.7 5.7 7.6 93 0.5 ENE 13 15 7 8 1022.3 1022.5 0.0
05/12:00am 7.7 5.1 6.2 90 0.7 SE 9 11 5 6 1022.5 1022.7 0.0
 
Date/Time
EST
Tmp

°C
App
Tmp
°C
Dew
Point
°C
Rel
Hum
%
Delta-T

°C
Wind Press
QNH
hPa
Press
MSL
hPa
Rain
since
9 am
mm
Dir
 
Spd
km/h
Gust
km/h
Spd
kts
Gust
kts
04/11:30pm 7.6 5.6 6.4 92 0.6 NE 6 9 3 5 1022.6 1022.8 0.0
04/11:00pm 6.9 4.8 5.7 92 0.5 NE 6 7 3 4 1022.7 1022.9 0.0
04/10:30pm 6.5 3.4 5.5 93 0.5 ENE 11 13 6 7 1022.6 1022.8 0.0
04/10:00pm 5.2 1.3 3.2 87 0.8 E 13 13 7 7 1022.7 1022.9 0.0
04/09:30pm 5.9 2.4 3.6 85 1.0 SE 11 11 6 6 1022.7 1022.9 0.0

Latest Capital City Observations: Canberra | Sydney | Melbourne | Brisbane | Adelaide | Perth | Hobart | Darwin

Other Formats:

Comma delimited format used in spreadsheet applications
http://www.bom.gov.au/fwo/IDQ60901/IDQ60901.94552.axf

JavaScript Object Notation format (JSON) in row-major order
http://www.bom.gov.au/fwo/IDQ60901/IDQ60901.94552.json